Louisburg, Kansas
Current Conditions -  °F | °C
As of 2:53 AM on Friday 24 Oct 2014 (Local Time) from KOJC Reporting Station
Moderate Fog Moderate Fog  
Wind Chill: 56°   Ceiling: 200
Heat Index: 56°   Visibility: 0.5mi
Dew Point: 56°   Wind: 9mph
Humidity: 100%   Direction: 200°SSW
Pressure: 30.08"   Gusts: NA
Location:  38.62°N, 94.68°W
Report Text: KOJC 240753Z AUTO 20008KT 1/2SM FG VV002 13/13 A3008 RMK AO2 SLP181 T01330133
Loading
Personal Weather Stations






























Interactive Weather Map
Tropical Storm Tracking
New forecast layout! Learn more

10-Day Weather Forecast

Advertisements
Track Severe Weather on mobile